Terminal Aerodrome Forecast
Issued by NWS

Home | Current Version | Previous Version | Text Only | Print | Product List | Glossary On
Versions: 1 2 3 4 5 6 7 8 9 10 11 12 13 14 15 16 17 18 19 20 21 22 23 24 25 26 27 28 29 30 31 32
000
FTUS44 KHGX 262323
TAFLBX
TAF
KLBX 262323Z 2700/2724 VRB04KT P6SM SCT035 BKN150
      TEMPO 2700/2701 VRB20KT 3SM TSRA BKN035CB
     FM270900 02004KT P6SM VCSH SCT025 BKN250
      TEMPO 2710/2714 TSRA BKN025CB
     FM271400 04006KT P6SM -RA VCTS SCT030CB BKN120
      TEMPO 2714/2718 TSRA BKN030CB
     FM271800 04007KT P6SM -RA VCTS FEW025 SCT035CB BKN120=

USA.gov is the U.S. government's official web portal to all federal, state and local government web resources and services.